Time;durP1;ratioP1;P1;durP2;ratioP2;P2;SDS_P1;SDS_P2;PMS_P1;PMS_P2;Temp;Humidity;BMP_temperature;BMP_pressure;BME280_temperature;BME280_humidity;BME280_pressure;Samples;Min_cycle;Max_cycle;Signal;HPM_P1;HPM_P2
2021/04/19 00:01:29;;;;;;;7.40;3.42;;;11.60;69.80;;;;;;4990279;28;20030;-89
2021/04/19 00:03:55;;;;;;;7.85;4.03;;;11.50;69.30;;;;;;4994707;28;20022;-88
2021/04/19 00:06:21;;;;;;;7.93;3.72;;;11.50;69.80;;;;;;4994710;28;20027;-89
2021/04/19 00:08:46;;;;;;;6.82;3.30;;;11.50;69.70;;;;;;4978522;28;20129;-89
2021/04/19 00:11:12;;;;;;;9.32;3.95;;;11.40;70.30;;;;;;4994755;28;20029;-89
2021/04/19 00:13:38;;;;;;;7.50;3.63;;;11.40;70.60;;;;;;4977395;28;20042;-89
2021/04/19 00:16:04;;;;;;;7.97;3.97;;;11.30;71.00;;;;;;4978608;28;20061;-89
2021/04/19 00:18:30;;;;;;;7.30;3.67;;;11.30;70.90;;;;;;4978536;28;20022;-88
2021/04/19 00:20:55;;;;;;;8.25;3.42;;;11.30;70.90;;;;;;4977979;28;20042;-88
2021/04/19 00:23:21;;;;;;;6.78;3.72;;;11.20;70.80;;;;;;4965976;28;20031;-88
2021/04/19 00:25:46;;;;;;;9.75;3.40;;;11.20;71.40;;;;;;4976545;28;20466;-89
2021/04/19 00:28:12;;;;;;;6.80;3.67;;;11.10;71.10;;;;;;4995338;28;20105;-89
2021/04/19 00:30:38;;;;;;;8.38;3.85;;;11.10;72.00;;;;;;4994129;28;20046;-89
2021/04/19 00:33:04;;;;;;;7.82;4.00;;;11.10;71.40;;;;;;4977953;28;20027;-89
2021/04/19 00:35:30;;;;;;;8.65;3.78;;;11.00;71.90;;;;;;4995549;28;20033;-89
2021/04/19 00:37:55;;;;;;;9.43;4.78;;;11.00;72.20;;;;;;4994677;28;20038;-88
2021/04/19 00:40:21;;;;;;;8.05;4.30;;;11.00;72.10;;;;;;4986368;28;20054;-87
2021/04/19 00:42:50;;;;;;;7.85;3.72;;;10.90;72.20;;;;;;4973066;28;20081;-88
2021/04/19 00:45:17;;;;;;;8.32;4.25;;;10.90;73.00;;;;;;4985198;28;20034;-88
2021/04/19 00:47:46;;;;;;;7.00;4.07;;;10.90;72.80;;;;;;4982423;28;20055;-89
2021/04/19 00:50:16;;;;;;;8.85;4.07;;;10.90;73.00;;;;;;4974260;28;20073;-88
2021/04/19 00:52:42;;;;;;;7.00;4.00;;;10.80;73.30;;;;;;4974377;28;20106;-88
2021/04/19 00:55:11;;;;;;;8.50;4.05;;;10.80;73.50;;;;;;4985373;28;20061;-88
2021/04/19 00:57:37;;;;;;;7.72;4.03;;;10.70;73.80;;;;;;4977894;28;20034;-88
2021/04/19 01:00:10;;;;;;;8.85;4.10;;;10.70;73.20;;;;;;4974483;28;20030;-89
2021/04/19 01:02:37;;;;;;;9.70;5.22;;;10.70;73.20;;;;;;4987725;28;20077;-89
2021/04/19 01:05:07;;;;;;;8.60;4.10;;;10.60;74.00;;;;;;4982142;28;20112;-89
2021/04/19 01:07:33;;;;;;;9.48;4.65;;;10.60;73.90;;;;;;4994102;28;20027;-88
2021/04/19 01:09:58;;;;;;;6.78;3.85;;;10.60;73.90;;;;;;4966279;28;20033;-88
2021/04/19 01:12:24;;;;;;;8.02;4.00;;;10.60;74.40;;;;;;4977959;28;20030;-88
2021/04/19 01:14:50;;;;;;;8.45;4.20;;;10.50;74.00;;;;;;4973337;28;20039;-88
2021/04/19 01:17:15;;;;;;;8.57;4.47;;;10.50;74.60;;;;;;4957426;28;20249;-88
2021/04/19 01:19:41;;;;;;;8.43;4.53;;;10.50;75.00;;;;;;4973662;28;20038;-89
2021/04/19 01:22:07;;;;;;;10.07;5.15;;;10.40;74.70;;;;;;4973903;28;20038;-88
2021/04/19 01:24:33;;;;;;;9.65;5.25;;;10.40;75.20;;;;;;4974189;28;20023;-88
2021/04/19 01:26:58;;;;;;;8.32;4.55;;;10.40;76.00;;;;;;4957506;28;20488;-88
2021/04/19 01:29:24;;;;;;;10.18;5.43;;;10.30;74.80;;;;;;4985089;28;20034;-89
2021/04/19 01:31:50;;;;;;;7.47;4.18;;;10.30;75.20;;;;;;4960318;28;20034;-88
2021/04/19 01:34:15;;;;;;;9.20;4.85;;;10.30;75.30;;;;;;4973916;28;20027;-89
2021/04/19 01:36:41;;;;;;;9.32;4.82;;;10.20;75.10;;;;;;4973800;28;20027;-89
2021/04/19 01:39:07;;;;;;;9.38;5.07;;;10.20;75.00;;;;;;4976968;28;20043;-89
2021/04/19 01:41:32;;;;;;;9.25;5.05;;;10.10;75.30;;;;;;5012756;28;20128;-89
2021/04/19 01:43:59;;;;;;;9.85;5.00;;;10.10;75.70;;;;;;4995729;28;20454;-88
2021/04/19 01:46:26;;;;;;;10.93;5.03;;;10.10;75.70;;;;;;4980343;28;20022;-89
2021/04/19 01:48:51;;;;;;;7.63;4.90;;;10.00;76.20;;;;;;4980023;28;20026;-89
2021/04/19 01:51:17;;;;;;;8.20;5.00;;;10.00;76.70;;;;;;4980084;28;20029;-88
2021/04/19 01:53:43;;;;;;;9.95;5.32;;;9.90;75.70;;;;;;4995759;28;20034;-88
2021/04/19 01:56:08;;;;;;;9.00;5.22;;;9.90;76.30;;;;;;4963920;28;20026;-87
2021/04/19 01:58:34;;;;;;;11.82;5.47;;;9.90;76.70;;;;;;4996270;28;20037;-88
2021/04/19 02:01:01;;;;;;;9.68;5.10;;;9.80;76.80;;;;;;5013357;28;20034;-89
2021/04/19 02:04:10;;;;;;;7.78;4.90;;;9.70;77.70;;;;;;5012415;28;20052;-89
2021/04/19 02:07:01;;;;;;;12.02;5.20;;;9.70;77.40;;;;;;4984314;28;20057;-88
2021/04/19 02:09:53;;;;;;;11.68;5.40;;;9.70;78.20;;;;;;5012750;28;20049;-88
2021/04/19 02:12:37;;;;;;;11.93;6.15;;;9.60;78.80;;;;;;4996256;28;20121;-89
2021/04/19 02:15:48;;;;;;;11.65;5.90;;;9.60;78.80;;;;;;4995191;28;20014;-89
2021/04/19 02:18:45;;;;;;;14.02;6.25;;;9.60;78.70;;;;;;4996417;28;20049;-89
2021/04/19 02:21:19;;;;;;;9.38;5.05;;;9.50;78.60;;;;;;5012989;28;20533;-89
2021/04/19 02:23:56;;;;;;;10.32;5.20;;;9.50;78.50;;;;;;5012263;28;20030;-89
2021/04/19 02:26:27;;;;;;;10.73;5.65;;;9.50;78.60;;;;;;4994585;28;20475;-88
2021/04/19 02:28:55;;;;;;;;;;;9.40;78.80;;;;;;4995965;28;20018;-88
2021/04/19 02:31:22;;;;;;;12.02;5.43;;;9.40;79.60;;;;;;4995559;28;19912;-88
2021/04/19 02:33:49;;;;;;;11.02;6.18;;;9.40;79.90;;;;;;4978439;28;20026;-88
2021/04/19 02:36:15;;;;;;;10.38;5.90;;;9.30;80.10;;;;;;4979322;28;20440;-88
2021/04/19 02:38:53;;;;;;;12.48;5.85;;;9.30;80.20;;;;;;4995723;28;20045;-89
2021/04/19 02:41:21;;;;;;;11.77;6.10;;;9.30;80.80;;;;;;4972691;28;20419;-89
2021/04/19 02:43:48;;;;;;;11.63;5.50;;;9.30;80.90;;;;;;4974135;28;20122;-88
2021/04/19 02:46:15;;;;;;;10.18;5.82;;;9.20;81.10;;;;;;4973063;28;20051;-88
2021/04/19 02:48:43;;;;;;;11.63;6.47;;;9.30;80.50;;;;;;4973186;28;20066;-89
2021/04/19 02:51:10;;;;;;;11.52;6.25;;;9.30;81.30;;;;;;4972645;28;20114;-89
2021/04/19 02:53:37;;;;;;;14.55;6.43;;;9.20;81.60;;;;;;4972841;28;20034;-88
2021/04/19 02:56:08;;;;;;;10.73;5.38;;;9.20;80.70;;;;;;4959432;28;20042;-89
2021/04/19 02:58:49;;;;;;;13.00;6.05;;;9.20;81.10;;;;;;4976814;28;20091;-89
2021/04/19 03:01:37;;;;;;;11.02;5.70;;;9.20;81.40;;;;;;4977860;28;20031;-88
2021/04/19 03:04:10;;;;;;;11.68;6.20;;;9.10;81.80;;;;;;4976228;28;20084;-89
2021/04/19 03:06:39;;;;;;;11.20;6.32;;;9.10;82.00;;;;;;4976320;28;20011;-88
2021/04/19 03:09:06;;;;;;;9.30;5.88;;;9.10;81.90;;;;;;4976966;28;20034;-89
2021/04/19 03:11:36;;;;;;;13.57;7.00;;;9.10;81.90;;;;;;4993158;28;20023;-89
2021/04/19 03:14:05;;;;;;;13.02;6.65;;;9.10;82.10;;;;;;4977309;28;20038;-89
2021/04/19 03:16:33;;;;;;;10.45;5.75;;;9.00;82.40;;;;;;4976032;28;20026;-89
2021/04/19 03:19:02;;;;;;;11.45;5.85;;;9.00;82.90;;;;;;4960763;28;20039;-89
2021/04/19 03:21:29;;;;;;;11.95;6.18;;;9.00;82.20;;;;;;4975988;28;20043;-88
2021/04/19 03:23:57;;;;;;;11.57;6.50;;;8.90;82.70;;;;;;4976049;28;20030;-89
2021/04/19 03:26:30;;;;;;;13.50;7.38;;;8.90;83.00;;;;;;4976098;28;20050;-89
2021/04/19 03:28:57;;;;;;;10.60;6.40;;;8.90;83.70;;;;;;4976110;28;20046;-88
2021/04/19 03:31:25;;;;;;;12.10;6.72;;;8.90;83.50;;;;;;4974871;28;20026;-89
2021/04/19 03:33:53;;;;;;;14.35;7.10;;;8.80;82.80;;;;;;4976296;28;20018;-89
2021/04/19 03:36:20;;;;;;;11.90;7.10;;;8.80;83.50;;;;;;4976273;28;20522;-89
2021/04/19 03:38:47;;;;;;;13.93;6.57;;;8.80;83.10;;;;;;4975989;28;20521;-88
2021/04/19 03:41:15;;;;;;;11.85;7.25;;;8.80;83.70;;;;;;4990515;28;20054;-88
2021/04/19 03:43:48;;;;;;;11.65;6.72;;;8.70;83.90;;;;;;4979467;28;20061;-89
2021/04/19 03:46:15;;;;;;;11.05;6.63;;;8.70;83.80;;;;;;5006575;28;20064;-89
2021/04/19 03:48:42;;;;;;;10.93;6.63;;;8.70;83.90;;;;;;4995720;28;20027;-89
2021/04/19 03:51:11;;;;;;;11.88;6.93;;;8.70;84.10;;;;;;4995214;28;20023;-88
2021/04/19 03:53:38;;;;;;;12.50;6.53;;;8.60;84.60;;;;;;4995209;28;20026;-88
2021/04/19 03:56:06;;;;;;;13.35;6.60;;;8.60;86.10;;;;;;4995107;28;20030;-88
2021/04/19 03:58:33;;;;;;;11.45;6.50;;;8.60;86.20;;;;;;4995001;28;20030;-88
2021/04/19 04:01:04;;;;;;;15.48;7.40;;;8.50;86.20;;;;;;4995253;28;20081;-88
2021/04/19 04:03:30;;;;;;;17.55;7.40;;;8.50;86.30;;;;;;4995066;28;20027;-89
2021/04/19 04:05:58;;;;;;;13.90;7.57;;;8.50;86.60;;;;;;4979195;28;20550;-89
2021/04/19 04:08:25;;;;;;;12.60;7.30;;;8.50;86.60;;;;;;4995490;28;20023;-89
2021/04/19 04:10:51;;;;;;;14.40;7.18;;;8.50;86.10;;;;;;4988252;28;20054;-89
2021/04/19 04:13:19;;;;;;;12.43;7.32;;;8.50;86.00;;;;;;4968826;28;20043;-91
2021/04/19 04:15:52;;;;;;;13.00;7.18;;;8.50;86.00;;;;;;4994572;28;20018;-89
2021/04/19 04:18:19;;;;;;;15.30;7.85;;;8.50;86.90;;;;;;4978906;28;20484;-87
2021/04/19 04:20:48;;;;;;;15.32;7.93;;;8.50;87.40;;;;;;4994791;28;20106;-89
2021/04/19 04:23:14;;;;;;;13.63;7.25;;;8.50;87.50;;;;;;4994982;28;20030;-89
2021/04/19 04:25:41;;;;;;;10.82;7.28;;;8.50;87.30;;;;;;4994937;28;20088;-89
2021/04/19 04:28:07;;;;;;;15.68;7.93;;;8.50;87.20;;;;;;4993876;28;20031;-89
2021/04/19 04:30:36;;;;;;;20.33;7.60;;;8.50;87.20;;;;;;4978664;28;20018;-89
2021/04/19 04:33:05;;;;;;;13.38;8.05;;;8.50;87.20;;;;;;4994710;28;20022;-89
2021/04/19 04:35:32;;;;;;;13.93;7.82;;;8.50;87.50;;;;;;4978816;28;20376;-90
2021/04/19 04:37:58;;;;;;;12.60;7.78;;;8.50;87.40;;;;;;4978259;28;20045;-90
2021/04/19 04:40:25;;;;;;;12.55;7.85;;;8.50;87.50;;;;;;4994948;28;20054;-89
2021/04/19 04:42:56;;;;;;;13.93;7.95;;;8.50;87.60;;;;;;4997027;28;20037;-90
2021/04/19 04:45:22;;;;;;;12.32;7.55;;;8.50;87.90;;;;;;4994421;28;20019;-90
2021/04/19 04:47:58;;;;;;;13.70;8.05;;;8.50;87.60;;;;;;4978055;28;20031;-90
2021/04/19 04:50:48;;;;;;;15.82;8.57;;;8.50;87.50;;;;;;4994835;28;20105;-90
2021/04/19 04:53:26;;;;;;;13.60;8.10;;;8.50;87.20;;;;;;4994207;28;20027;-90
2021/04/19 04:55:54;;;;;;;12.50;8.05;;;8.50;88.00;;;;;;4990258;28;20031;-90
2021/04/19 04:58:21;;;;;;;16.27;8.95;;;8.50;88.10;;;;;;4970428;28;20034;-90
2021/04/19 05:00:47;;;;;;;15.35;9.05;;;8.50;88.30;;;;;;4977564;28;20039;-91
2021/04/19 05:03:14;;;;;;;16.63;9.18;;;8.50;88.50;;;;;;5010576;28;20041;-91
2021/04/19 05:05:41;;;;;;;16.10;8.73;;;8.50;88.90;;;;;;4993820;28;20494;-91
2021/04/19 05:08:11;;;;;;;16.00;9.23;;;8.50;89.90;;;;;;4978183;28;20030;-90
2021/04/19 05:10:38;;;;;;;14.00;9.00;;;8.50;90.00;;;;;;4994238;28;20070;-92
2021/04/19 05:13:15;;;;;;;14.02;9.07;;;8.50;90.00;;;;;;4975469;28;20026;-92
2021/04/19 05:15:49;;;;;;;16.10;8.85;;;8.50;90.30;;;;;;4986473;28;20034;-93
2021/04/19 05:18:17;;;;;;;16.35;9.43;;;8.50;90.40;;;;;;4994629;28;20027;-92
2021/04/19 05:20:43;;;;;;;14.40;9.38;;;8.50;90.40;;;;;;4981617;28;20031;-92
2021/04/19 05:23:10;;;;;;;15.80;10.13;;;8.50;90.40;;;;;;4980642;28;20106;-90
2021/04/19 05:25:36;;;;;;;17.55;9.80;;;8.50;90.50;;;;;;4994353;28;20026;-91
2021/04/19 05:28:02;;;;;;;14.40;9.20;;;8.50;90.80;;;;;;4993829;28;20033;-91
2021/04/19 05:30:29;;;;;;;16.77;9.52;;;8.50;90.60;;;;;;4997664;28;20023;-91
2021/04/19 05:32:57;;;;;;;15.85;10.20;;;8.40;90.90;;;;;;4989074;28;20042;-91
2021/04/19 05:35:23;;;;;;;15.45;9.35;;;8.40;91.00;;;;;;4994217;28;20480;-92
2021/04/19 05:37:50;;;;;;;15.75;9.80;;;8.50;91.10;;;;;;4993898;28;20038;-93
2021/04/19 05:40:19;;;;;;;15.65;9.30;;;8.40;91.10;;;;;;4976963;28;20054;-90
2021/04/19 05:42:45;;;;;;;16.20;10.00;;;8.40;91.20;;;;;;4993500;28;20033;-91
2021/04/19 05:45:15;;;;;;;15.27;9.85;;;8.40;91.30;;;;;;4977147;28;20037;-91
2021/04/19 05:47:44;;;;;;;15.73;10.23;;;8.40;91.40;;;;;;4995478;28;20015;-93
2021/04/19 05:50:10;;;;;;;14.93;9.38;;;8.40;91.30;;;;;;4992569;28;20048;-93
2021/04/19 05:52:36;;;;;;;18.77;10.45;;;8.40;91.40;;;;;;4973521;28;20045;-94
2021/04/19 05:55:02;;;;;;;16.05;10.13;;;8.40;91.50;;;;;;4994302;28;20030;-95
2021/04/19 05:57:51;;;;;;;16.13;10.23;;;8.40;91.60;;;;;;4995579;28;20416;-92
2021/04/19 06:00:25;;;;;;;19.70;10.52;;;8.40;91.90;;;;;;4994636;28;20137;-95
2021/04/19 06:02:58;;;;;;;15.50;10.43;;;8.40;91.90;;;;;;4984805;28;20042;-93
2021/04/19 06:05:32;;;;;;;16.38;10.52;;;8.40;92.00;;;;;;4995235;28;20030;-93
2021/04/19 06:08:19;;;;;;;16.02;11.18;;;8.40;92.20;;;;;;4996105;28;20385;-94
2021/04/19 06:10:52;;;;;;;21.38;11.57;;;8.40;92.60;;;;;;4995534;28;20034;-93
2021/04/19 06:13:20;;;;;;;19.13;11.80;;;8.30;92.80;;;;;;4994845;28;20026;-93
2021/04/19 06:15:51;;;;;;;18.33;11.32;;;8.40;92.90;;;;;;4995895;28;20463;-93
2021/04/19 06:18:24;;;;;;;;;;;8.30;93.00;;;;;;4995187;28;20030;-91
2021/04/19 06:20:51;;;;;;;16.02;11.23;;;8.30;93.20;;;;;;4994864;28;20000;-92
2021/04/19 06:23:17;;;;;;;19.25;12.15;;;8.30;93.40;;;;;;4993520;28;20032;-92
2021/04/19 06:25:43;;;;;;;20.85;12.13;;;8.30;93.50;;;;;;4977264;28;20534;-90
2021/04/19 06:28:09;;;;;;;20.58;11.88;;;8.40;93.70;;;;;;4993527;28;20051;-91
2021/04/19 06:30:42;;;;;;;16.08;11.98;;;8.40;93.80;;;;;;4963674;28;20031;-92
2021/04/19 06:33:16;;;;;;;19.35;11.88;;;8.40;93.90;;;;;;4991594;28;20451;-90
2021/04/19 06:35:43;;;;;;;18.40;11.60;;;8.40;94.00;;;;;;4997361;28;20069;-91
2021/04/19 06:38:09;;;;;;;19.88;12.52;;;8.50;94.00;;;;;;4996738;28;20022;-92
2021/04/19 06:40:37;;;;;;;18.15;12.20;;;8.50;94.00;;;;;;4998137;28;20133;-92
2021/04/19 06:43:03;;;;;;;19.30;12.15;;;8.50;94.10;;;;;;5000801;28;20026;-94
2021/04/19 06:45:32;;;;;;;18.85;12.68;;;8.60;94.10;;;;;;5021286;28;20034;-92
2021/04/19 06:48:05;;;;;;;20.17;13.00;;;8.60;94.20;;;;;;5004674;28;20048;-93
2021/04/19 06:50:31;;;;;;;19.15;12.52;;;8.60;94.20;;;;;;4990674;28;20022;-92
2021/04/19 06:52:57;;;;;;;21.90;12.68;;;8.60;94.10;;;;;;5000417;28;20022;-90
2021/04/19 06:55:25;;;;;;;19.00;12.30;;;8.60;94.10;;;;;;4984572;28;20029;-93
2021/04/19 06:57:56;;;;;;;18.50;12.32;;;8.60;94.10;;;;;;5001553;28;20053;-95
2021/04/19 07:00:23;;;;;;;;;;;8.60;94.10;;;;;;5001877;28;20034;-91
2021/04/19 07:02:51;;;;;;;20.92;12.25;;;8.60;94.10;;;;;;5005273;28;19917;-93
2021/04/19 07:05:19;;;;;;;16.02;11.32;;;8.60;94.20;;;;;;4999275;28;20117;-93
2021/04/19 07:08:02;;;;;;;19.10;11.93;;;8.60;94.30;;;;;;4988299;28;20038;-94
2021/04/19 07:10:30;;;;;;;21.67;12.80;;;8.60;94.40;;;;;;4995966;28;20048;-95
2021/04/19 07:12:57;;;;;;;19.00;12.18;;;8.60;94.40;;;;;;4999340;28;20033;-93
2021/04/19 07:15:23;;;;;;;20.85;13.18;;;8.60;94.40;;;;;;4981353;28;20375;-91
2021/04/19 07:17:50;;;;;;;19.40;13.02;;;8.70;94.60;;;;;;5018943;28;20485;-94
2021/04/19 07:20:17;;;;;;;19.30;13.57;;;8.70;94.70;;;;;;5003636;28;20030;-91
2021/04/19 07:22:44;;;;;;;20.35;14.00;;;8.80;94.80;;;;;;4984264;28;20038;-90
2021/04/19 07:25:10;;;;;;;21.35;13.82;;;8.80;94.80;;;;;;4983021;28;20069;-88
2021/04/19 07:27:40;;;;;;;18.98;13.15;;;8.90;94.90;;;;;;4985777;28;20121;-91
2021/04/19 07:30:09;;;;;;;19.98;13.63;;;8.90;94.90;;;;;;4980070;28;20483;-88
2021/04/19 07:32:36;;;;;;;19.23;14.45;;;8.90;94.90;;;;;;4995457;28;20018;-91
2021/04/19 07:35:05;;;;;;;20.63;13.88;;;9.00;95.00;;;;;;5000171;28;20034;-91
2021/04/19 07:37:31;;;;;;;18.55;13.88;;;9.10;95.10;;;;;;5008220;28;20013;-94
2021/04/19 07:39:57;;;;;;;22.25;14.85;;;9.20;95.30;;;;;;4993465;28;20069;-94
2021/04/19 07:42:23;;;;;;;21.98;14.57;;;9.20;95.50;;;;;;4990003;28;20042;-89
2021/04/19 07:44:52;;;;;;;19.75;14.60;;;9.30;95.40;;;;;;4987235;28;20037;-87
2021/04/19 07:47:38;;;;;;;20.05;14.30;;;9.30;95.40;;;;;;5016263;28;20120;-92
2021/04/19 07:50:16;;;;;;;21.27;14.00;;;9.40;95.40;;;;;;4997024;28;20045;-88
2021/04/19 07:53:05;;;;;;;21.23;14.95;;;9.40;95.40;;;;;;4999393;28;20026;-89
2021/04/19 07:55:37;;;;;;;19.27;13.60;;;9.50;95.50;;;;;;5011153;28;20026;-92
2021/04/19 07:58:23;;;;;;;20.77;14.00;;;9.50;95.60;;;;;;5004420;28;20069;-91
2021/04/19 08:00:51;;;;;;;26.10;17.27;;;9.60;95.70;;;;;;5002384;28;20433;-94
2021/04/19 08:03:19;;;;;;;22.30;15.65;;;9.70;95.90;;;;;;4984661;28;20030;-93
2021/04/19 08:05:48;;;;;;;20.95;15.57;;;9.80;96.00;;;;;;5020278;28;20052;-90
2021/04/19 08:08:16;;;;;;;22.17;15.13;;;9.90;96.00;;;;;;4999036;28;20088;-92
2021/04/19 08:10:44;;;;;;;20.60;14.45;;;10.00;96.10;;;;;;5018567;28;20033;-92
2021/04/19 08:13:17;;;;;;;21.02;16.33;;;10.00;96.10;;;;;;4999529;28;20026;-92
2021/04/19 08:15:44;;;;;;;22.45;17.08;;;10.10;96.20;;;;;;5019817;28;20029;-92
2021/04/19 08:18:14;;;;;;;24.02;18.00;;;10.20;96.40;;;;;;5004036;28;20097;-91
2021/04/19 08:20:52;;;;;;;25.35;17.52;;;10.20;96.50;;;;;;5001702;28;20026;-93
2021/04/19 08:23:19;;;;;;;23.90;16.42;;;10.30;96.40;;;;;;5030818;28;20018;-90
2021/04/19 08:25:51;;;;;;;20.70;16.20;;;10.30;96.40;;;;;;5012283;28;20021;-91
2021/04/19 08:28:21;;;;;;;18.85;15.35;;;10.40;96.40;;;;;;5025928;28;20091;-93
2021/04/19 08:30:49;;;;;;;25.23;16.92;;;10.40;96.40;;;;;;5000640;28;20026;-95
2021/04/19 08:33:15;;;;;;;21.60;16.65;;;10.40;96.60;;;;;;5000400;28;20022;-94
2021/04/19 08:35:43;;;;;;;20.30;15.23;;;10.50;96.70;;;;;;4999978;28;20084;-91
2021/04/19 08:38:09;;;;;;;19.17;14.85;;;10.50;96.60;;;;;;4996306;28;20084;-91
2021/04/19 08:40:37;;;;;;;21.35;16.88;;;10.50;96.60;;;;;;4998295;28;20060;-91
2021/04/19 08:43:08;;;;;;;22.02;16.33;;;10.60;96.70;;;;;;4998657;28;20030;-92
2021/04/19 08:45:37;;;;;;;23.38;16.92;;;10.70;96.80;;;;;;4999516;28;20033;-96
2021/04/19 08:48:11;;;;;;;20.73;16.08;;;10.70;96.80;;;;;;5004271;28;20034;-93
2021/04/19 08:50:39;;;;;;;21.05;15.35;;;10.70;96.70;;;;;;5001518;28;20026;-90
2021/04/19 08:53:09;;;;;;;17.67;13.85;;;10.70;96.80;;;;;;5019806;28;20029;-96
2021/04/19 08:55:35;;;;;;;18.35;13.10;;;10.80;97.00;;;;;;5013447;28;20045;-90
2021/04/19 08:58:06;;;;;;;17.95;12.80;;;10.90;96.80;;;;;;5018308;28;20026;-91
2021/04/19 09:00:32;;;;;;;16.85;12.82;;;10.90;96.90;;;;;;5001258;28;20030;-93
2021/04/19 09:02:59;;;;;;;17.08;12.77;;;11.00;96.90;;;;;;4960956;28;20035;-93
2021/04/19 09:05:25;;;;;;;15.10;12.43;;;11.10;97.00;;;;;;5013224;28;20034;-88
2021/04/19 09:08:03;;;;;;;17.45;12.65;;;11.20;96.90;;;;;;5019144;28;20034;-93
2021/04/19 09:10:54;;;;;;;15.25;12.27;;;11.20;96.70;;;;;;5017639;28;20096;-94
2021/04/19 09:13:42;;;;;;;16.00;12.55;;;11.20;96.50;;;;;;5004816;28;20014;-95
2021/04/19 09:16:18;;;;;;;17.00;12.00;;;11.30;96.40;;;;;;5039410;23;20049;-79
2021/04/19 09:18:54;;;;;;;15.32;11.02;;;11.30;96.50;;;;;;4993996;28;20109;-79
2021/04/19 09:21:42;;;;;;;14.90;11.45;;;11.40;96.60;;;;;;5013867;28;20029;-79
2021/04/19 09:24:09;;;;;;;15.75;11.77;;;11.40;96.60;;;;;;5004926;28;20025;-79
2021/04/19 09:27:07;;;;;;;15.98;11.85;;;11.50;96.60;;;;;;5005495;28;20033;-79
2021/04/19 09:29:35;;;;;;;16.23;12.57;;;11.50;96.60;;;;;;4965834;28;20154;-80
2021/04/19 09:32:08;;;;;;;18.15;13.75;;;11.60;96.60;;;;;;5032243;28;20040;-80
2021/04/19 09:34:40;;;;;;;15.68;12.15;;;11.70;96.50;;;;;;5004084;28;20029;-80
2021/04/19 09:37:17;;;;;;;16.02;12.40;;;11.70;96.50;;;;;;5029404;28;20059;-80
2021/04/19 09:40:02;;;;;;;17.45;13.38;;;11.80;96.50;;;;;;5008914;28;20530;-79
2021/04/19 09:42:50;;;;;;;15.40;12.38;;;11.80;96.50;;;;;;5004142;28;20505;-80
2021/04/19 09:45:38;;;;;;;15.35;12.45;;;11.90;96.50;;;;;;5020045;28;20025;-80
2021/04/19 09:48:04;;;;;;;14.20;12.02;;;12.00;96.40;;;;;;5001548;28;20025;-79
2021/04/19 09:50:30;;;;;;;16.48;11.90;;;12.00;96.20;;;;;;4994315;28;20033;-79
2021/04/19 09:52:55;;;;;;;15.55;11.57;;;12.00;96.30;;;;;;4990810;28;20029;-79
2021/04/19 09:55:21;;;;;;;14.10;10.93;;;12.10;96.30;;;;;;4998007;28;20025;-79
2021/04/19 09:57:47;;;;;;;14.07;11.25;;;12.20;96.30;;;;;;5013921;28;20061;-79
2021/04/19 10:00:14;;;;;;;13.02;10.40;;;12.20;96.30;;;;;;5014312;28;20033;-79
2021/04/19 10:02:41;;;;;;;13.93;11.55;;;12.30;96.20;;;;;;5012215;28;20029;-79
2021/04/19 10:05:12;;;;;;;13.68;11.60;;;12.40;96.20;;;;;;5029099;28;20020;-79
2021/04/19 10:07:43;;;;;;;13.75;11.50;;;12.50;96.10;;;;;;5032160;28;20025;-79
2021/04/19 10:10:11;;;;;;;13.43;11.38;;;12.60;95.80;;;;;;5032021;28;20352;-79
2021/04/19 10:12:44;;;;;;;13.25;10.63;;;12.60;95.40;;;;;;4994957;28;20036;-79
2021/04/19 10:15:30;;;;;;;11.32;9.10;;;12.70;95.40;;;;;;5010642;28;20022;-79
2021/04/19 10:17:58;;;;;;;11.82;9.95;;;12.70;95.40;;;;;;5031892;28;20112;-79
2021/04/19 10:20:27;;;;;;;13.00;10.13;;;12.80;95.50;;;;;;4998092;28;20076;-79
2021/04/19 10:23:12;;;;;;;11.80;9.15;;;12.80;95.40;;;;;;5014266;28;20120;-79
2021/04/19 10:25:47;;;;;;;9.82;8.35;;;12.90;95.40;;;;;;5031861;28;20327;-79
2021/04/19 10:28:26;;;;;;;10.63;9.00;;;12.90;95.40;;;;;;5031984;28;20025;-79
2021/04/19 10:30:51;;;;;;;12.98;10.18;;;13.00;95.40;;;;;;5014023;28;20036;-79
2021/04/19 10:33:25;;;;;;;12.02;10.52;;;13.00;95.10;;;;;;5012692;28;20033;-79
2021/04/19 10:35:51;;;;;;;11.20;9.80;;;13.00;94.80;;;;;;5014019;28;20025;-79
2021/04/19 10:38:17;;;;;;;12.98;10.50;;;13.10;94.70;;;;;;5014224;28;20045;-80
2021/04/19 10:40:43;;;;;;;13.02;11.05;;;13.10;94.50;;;;;;5013865;28;20541;-80
2021/04/19 10:43:11;;;;;;;11.73;9.82;;;13.10;94.50;;;;;;5014196;28;20064;-78
2021/04/19 10:45:38;;;;;;;12.75;10.35;;;13.10;94.70;;;;;;5032545;28;20026;-80
2021/04/19 10:48:19;;;;;;;12.00;10.80;;;13.10;94.60;;;;;;5014306;28;20026;-79
2021/04/19 10:50:46;;;;;;;10.77;9.68;;;13.20;94.60;;;;;;5013754;28;20418;-80
2021/04/19 10:53:12;;;;;;;10.75;9.52;;;13.30;94.50;;;;;;5014040;28;20120;-80
2021/04/19 10:55:38;;;;;;;10.40;9.00;;;13.30;94.70;;;;;;5032248;28;20429;-80
2021/04/19 10:58:04;;;;;;;10.18;9.18;;;13.40;94.60;;;;;;4997340;28;20032;-80
2021/04/19 11:00:30;;;;;;;10.75;9.45;;;13.50;94.50;;;;;;5013751;28;20030;-80
2021/04/19 11:02:56;;;;;;;10.00;8.90;;;13.60;94.30;;;;;;5031464;28;20022;-80
2021/04/19 11:05:21;;;;;;;10.57;9.50;;;13.60;94.20;;;;;;5013809;28;20628;-80
2021/04/19 11:07:47;;;;;;;11.18;9.30;;;13.60;93.50;;;;;;5013682;28;20360;-80
2021/04/19 11:10:22;;;;;;;10.25;8.60;;;13.70;93.80;;;;;;5013601;28;20029;-80
2021/04/19 11:13:01;;;;;;;9.13;7.75;;;13.70;93.60;;;;;;5013936;28;20021;-80
2021/04/19 11:15:38;;;;;;;10.35;9.05;;;13.70;93.50;;;;;;5013559;28;20041;-80
2021/04/19 11:18:28;;;;;;;10.05;8.43;;;13.80;93.30;;;;;;5016308;28;20498;-80
2021/04/19 11:20:56;;;;;;;9.57;8.32;;;13.80;93.40;;;;;;5005317;28;20107;-78
2021/04/19 11:23:21;;;;;;;9.70;8.32;;;13.90;93.40;;;;;;5017505;28;20371;-81
2021/04/19 11:25:48;;;;;;;9.82;8.35;;;13.90;93.20;;;;;;5034954;28;20029;-80
2021/04/19 11:28:29;;;;;;;8.75;7.68;;;14.00;92.70;;;;;;5017225;28;20036;-77
2021/04/19 11:30:56;;;;;;;8.02;6.50;;;14.00;91.80;;;;;;5034935;28;20046;-76
2021/04/19 11:33:25;;;;;;;8.60;7.20;;;14.00;92.20;;;;;;5036245;23;20013;-79
2021/04/19 11:36:34;;;;;;;9.80;8.13;;;14.00;92.40;;;;;;5009019;28;20104;-80
2021/04/19 11:39:17;;;;;;;8.75;7.38;;;14.10;92.10;;;;;;5020510;28;20117;-79
2021/04/19 11:41:44;;;;;;;9.90;6.72;;;14.20;92.30;;;;;;5021945;28;20021;-79
2021/04/19 11:44:10;;;;;;;7.45;6.32;;;14.30;92.20;;;;;;4991369;28;20029;-80
2021/04/19 11:46:41;;;;;;;8.77;7.00;;;14.40;92.20;;;;;;5016981;28;20489;-80
2021/04/19 11:49:12;;;;;;;9.70;7.65;;;14.50;91.60;;;;;;5028967;28;20463;-81
2021/04/19 11:51:38;;;;;;;8.82;7.28;;;14.50;90.40;;;;;;5009260;28;20141;-79
2021/04/19 11:54:04;;;;;;;8.18;6.82;;;14.50;90.10;;;;;;5022142;28;20494;-80
2021/04/19 11:56:29;;;;;;;9.45;6.22;;;14.50;90.30;;;;;;4995393;28;20044;-80
2021/04/19 11:58:55;;;;;;;9.48;6.20;;;14.50;90.40;;;;;;5015181;28;20029;-79
2021/04/19 12:01:22;;;;;;;7.68;6.45;;;14.40;90.30;;;;;;5009506;28;20068;-80
2021/04/19 12:03:48;;;;;;;7.60;6.18;;;14.50;90.30;;;;;;4999479;28;20028;-79
2021/04/19 12:06:15;;;;;;;7.68;6.20;;;14.50;90.30;;;;;;5016314;28;20025;-79
2021/04/19 12:08:42;;;;;;;7.25;5.90;;;14.40;90.50;;;;;;5014378;28;20109;-81
2021/04/19 12:11:09;;;;;;;7.78;5.97;;;14.40;90.80;;;;;;5014449;28;20026;-80
2021/04/19 12:13:35;;;;;;;7.40;6.07;;;14.40;90.80;;;;;;4999583;28;20069;-80
2021/04/19 12:16:01;;;;;;;7.43;5.97;;;14.40;90.60;;;;;;4997484;28;20491;-80
2021/04/19 12:18:28;;;;;;;6.78;5.78;;;14.40;90.60;;;;;;4989081;28;20514;-80
2021/04/19 12:20:53;;;;;;;7.85;6.93;;;14.40;90.70;;;;;;5013899;28;20038;-80
2021/04/19 12:23:20;;;;;;;8.68;6.57;;;14.40;90.60;;;;;;5014670;28;20073;-80
2021/04/19 12:25:52;;;;;;;8.85;7.38;;;14.40;90.30;;;;;;4998741;28;20056;-80
2021/04/19 12:28:22;;;;;;;7.47;6.18;;;14.30;90.10;;;;;;4996315;28;20395;-80
2021/04/19 12:30:49;;;;;;;8.73;7.07;;;14.30;90.30;;;;;;4993837;28;20033;-80
2021/04/19 12:33:16;;;;;;;8.10;6.55;;;14.30;90.20;;;;;;5002675;28;20397;-80
2021/04/19 12:35:42;;;;;;;10.85;7.40;;;14.30;89.00;;;;;;5015852;28;20505;-80
2021/04/19 12:38:08;;;;;;;8.75;7.10;;;14.30;88.60;;;;;;5016014;28;20030;-80
2021/04/19 12:40:34;;;;;;;8.13;7.20;;;14.30;89.20;;;;;;4996640;28;20586;-80
2021/04/19 12:43:00;;;;;;;8.95;7.80;;;14.30;89.10;;;;;;5029979;28;20029;-80
2021/04/19 12:45:31;;;;;;;8.80;6.80;;;14.40;87.80;;;;;;4999577;28;20430;-80
2021/04/19 12:47:57;;;;;;;;;;;14.40;87.90;;;;;;5016102;28;20029;-80
2021/04/19 12:50:23;;;;;;;8.52;7.03;;;14.40;88.40;;;;;;5015650;28;20366;-80
2021/04/19 12:52:49;;;;;;;10.40;7.22;;;14.40;88.30;;;;;;5033514;28;20040;-80
2021/04/19 12:55:14;;;;;;;7.72;6.53;;;14.40;87.70;;;;;;5033401;28;20030;-81
2021/04/19 12:57:40;;;;;;;10.88;7.75;;;14.40;88.10;;;;;;4999636;28;20464;-81